sensor_id;sensor_type;location;lat;lon;timestamp;P1;durP1;ratioP1;P2;durP2;ratioP2
64854;SDS011;51321;50.428;8.378;2022-12-18T00:00:55;39.20;;;16.60;;
64854;SDS011;51321;50.428;8.378;2022-12-18T00:03:17;38.72;;;15.45;;
64854;SDS011;51321;50.428;8.378;2022-12-18T00:08:07;26.42;;;12.00;;
64854;SDS011;51321;50.428;8.378;2022-12-18T00:12:53;35.55;;;15.52;;
64854;SDS011;51321;50.428;8.378;2022-12-18T00:15:18;41.65;;;17.05;;
64854;SDS011;51321;50.428;8.378;2022-12-18T00:17:47;30.85;;;15.02;;
64854;SDS011;51321;50.428;8.378;2022-12-18T00:20:10;33.42;;;14.80;;
64854;SDS011;51321;50.428;8.378;2022-12-18T00:22:34;35.90;;;15.95;;
64854;SDS011;51321;50.428;8.378;2022-12-18T00:24:56;33.08;;;15.20;;
64854;SDS011;51321;50.428;8.378;2022-12-18T00:29:40;31.38;;;14.77;;
64854;SDS011;51321;50.428;8.378;2022-12-18T00:32:08;29.98;;;13.43;;
64854;SDS011;51321;50.428;8.378;2022-12-18T00:34:30;33.83;;;14.27;;
64854;SDS011;51321;50.428;8.378;2022-12-18T00:39:16;30.70;;;13.60;;
64854;SDS011;51321;50.428;8.378;2022-12-18T00:41:38;31.77;;;14.23;;
64854;SDS011;51321;50.428;8.378;2022-12-18T00:44:19;29.75;;;14.30;;
64854;SDS011;51321;50.428;8.378;2022-12-18T00:46:45;29.58;;;13.32;;
64854;SDS011;51321;50.428;8.378;2022-12-18T00:49:12;31.55;;;14.05;;
64854;SDS011;51321;50.428;8.378;2022-12-18T00:51:35;31.90;;;13.90;;
64854;SDS011;51321;50.428;8.378;2022-12-18T00:53:59;32.35;;;12.82;;
64854;SDS011;51321;50.428;8.378;2022-12-18T00:56:24;32.05;;;13.63;;
64854;SDS011;51321;50.428;8.378;2022-12-18T00:58:48;25.58;;;13.45;;
64854;SDS011;51321;50.428;8.378;2022-12-18T01:01:11;26.58;;;12.77;;
64854;SDS011;51321;50.428;8.378;2022-12-18T01:03:33;25.20;;;12.73;;
64854;SDS011;51321;50.428;8.378;2022-12-18T01:08:27;26.80;;;11.95;;
64854;SDS011;51321;50.428;8.378;2022-12-18T01:11:11;22.30;;;10.63;;
64854;SDS011;51321;50.428;8.378;2022-12-18T01:13:57;29.33;;;13.00;;
64854;SDS011;51321;50.428;8.378;2022-12-18T01:16:40;29.55;;;13.75;;
64854;SDS011;51321;50.428;8.378;2022-12-18T01:19:09;29.73;;;13.40;;
64854;SDS011;51321;50.428;8.378;2022-12-18T01:21:35;27.98;;;12.77;;
64854;SDS011;51321;50.428;8.378;2022-12-18T01:24:11;29.52;;;12.18;;
64854;SDS011;51321;50.428;8.378;2022-12-18T01:26:47;28.83;;;13.20;;
64854;SDS011;51321;50.428;8.378;2022-12-18T01:29:29;29.50;;;12.95;;
64854;SDS011;51321;50.428;8.378;2022-12-18T01:32:14;25.85;;;12.13;;
64854;SDS011;51321;50.428;8.378;2022-12-18T01:34:56;29.25;;;12.45;;
64854;SDS011;51321;50.428;8.378;2022-12-18T01:38:03;28.17;;;12.32;;
64854;SDS011;51321;50.428;8.378;2022-12-18T01:40:44;28.08;;;13.23;;
64854;SDS011;51321;50.428;8.378;2022-12-18T01:43:40;23.52;;;9.98;;
64854;SDS011;51321;50.428;8.378;2022-12-18T01:46:26;29.92;;;12.88;;
64854;SDS011;51321;50.428;8.378;2022-12-18T01:49:10;26.95;;;13.18;;
64854;SDS011;51321;50.428;8.378;2022-12-18T01:51:54;27.70;;;12.13;;
64854;SDS011;51321;50.428;8.378;2022-12-18T01:54:18;26.38;;;12.48;;
64854;SDS011;51321;50.428;8.378;2022-12-18T01:56:42;28.60;;;13.38;;
64854;SDS011;51321;50.428;8.378;2022-12-18T02:01:31;23.35;;;11.07;;
64854;SDS011;51321;50.428;8.378;2022-12-18T02:03:55;28.23;;;12.85;;
64854;SDS011;51321;50.428;8.378;2022-12-18T02:06:39;24.58;;;12.20;;
64854;SDS011;51321;50.428;8.378;2022-12-18T02:09:07;24.85;;;12.45;;
64854;SDS011;51321;50.428;8.378;2022-12-18T02:11:41;29.30;;;12.70;;
64854;SDS011;51321;50.428;8.378;2022-12-18T02:14:14;27.38;;;12.38;;
64854;SDS011;51321;50.428;8.378;2022-12-18T02:16:52;25.08;;;11.80;;
64854;SDS011;51321;50.428;8.378;2022-12-18T02:19:30;28.23;;;13.52;;
64854;SDS011;51321;50.428;8.378;2022-12-18T02:22:10;25.30;;;12.75;;
64854;SDS011;51321;50.428;8.378;2022-12-18T02:27:23;22.23;;;9.27;;
64854;SDS011;51321;50.428;8.378;2022-12-18T02:29:46;31.73;;;12.75;;
64854;SDS011;51321;50.428;8.378;2022-12-18T02:32:14;23.17;;;11.80;;
64854;SDS011;51321;50.428;8.378;2022-12-18T02:34:42;24.88;;;12.02;;
64854;SDS011;51321;50.428;8.378;2022-12-18T02:37:11;24.70;;;11.57;;
64854;SDS011;51321;50.428;8.378;2022-12-18T02:39:39;26.23;;;12.52;;
64854;SDS011;51321;50.428;8.378;2022-12-18T02:42:15;28.58;;;11.98;;
64854;SDS011;51321;50.428;8.378;2022-12-18T02:44:46;33.03;;;12.80;;
64854;SDS011;51321;50.428;8.378;2022-12-18T02:47:19;24.13;;;11.32;;
64854;SDS011;51321;50.428;8.378;2022-12-18T02:49:48;27.08;;;13.10;;
64854;SDS011;51321;50.428;8.378;2022-12-18T02:52:25;28.05;;;11.90;;
64854;SDS011;51321;50.428;8.378;2022-12-18T02:55:00;22.00;;;10.55;;
64854;SDS011;51321;50.428;8.378;2022-12-18T02:57:34;30.50;;;13.05;;
64854;SDS011;51321;50.428;8.378;2022-12-18T03:00:05;25.67;;;11.18;;
64854;SDS011;51321;50.428;8.378;2022-12-18T03:02:35;25.98;;;11.80;;
64854;SDS011;51321;50.428;8.378;2022-12-18T03:05:08;24.65;;;11.13;;
64854;SDS011;51321;50.428;8.378;2022-12-18T03:07:36;27.10;;;11.85;;
64854;SDS011;51321;50.428;8.378;2022-12-18T03:10:04;25.65;;;11.63;;
64854;SDS011;51321;50.428;8.378;2022-12-18T03:12:31;27.27;;;12.13;;
64854;SDS011;51321;50.428;8.378;2022-12-18T03:14:58;25.77;;;12.70;;
64854;SDS011;51321;50.428;8.378;2022-12-18T03:17:26;26.83;;;10.70;;
64854;SDS011;51321;50.428;8.378;2022-12-18T03:19:52;23.50;;;10.15;;
64854;SDS011;51321;50.428;8.378;2022-12-18T03:22:20;23.25;;;11.15;;
64854;SDS011;51321;50.428;8.378;2022-12-18T03:24:47;22.92;;;11.35;;
64854;SDS011;51321;50.428;8.378;2022-12-18T03:27:12;25.45;;;12.00;;
64854;SDS011;51321;50.428;8.378;2022-12-18T03:29:40;23.60;;;11.90;;
64854;SDS011;51321;50.428;8.378;2022-12-18T03:32:11;16.83;;;9.03;;
64854;SDS011;51321;50.428;8.378;2022-12-18T03:34:39;26.80;;;11.40;;
64854;SDS011;51321;50.428;8.378;2022-12-18T03:37:07;24.00;;;10.98;;
64854;SDS011;51321;50.428;8.378;2022-12-18T03:39:30;28.25;;;10.95;;
64854;SDS011;51321;50.428;8.378;2022-12-18T03:41:55;23.33;;;11.48;;
64854;SDS011;51321;50.428;8.378;2022-12-18T03:44:29;25.33;;;10.35;;
64854;SDS011;51321;50.428;8.378;2022-12-18T03:47:01;24.05;;;10.50;;
64854;SDS011;51321;50.428;8.378;2022-12-18T03:49:30;21.10;;;10.27;;
64854;SDS011;51321;50.428;8.378;2022-12-18T03:52:05;23.02;;;10.80;;
64854;SDS011;51321;50.428;8.378;2022-12-18T03:54:35;24.90;;;10.98;;
64854;SDS011;51321;50.428;8.378;2022-12-18T03:57:07;19.25;;;8.57;;
64854;SDS011;51321;50.428;8.378;2022-12-18T03:59:37;23.88;;;10.25;;
64854;SDS011;51321;50.428;8.378;2022-12-18T04:02:01;23.83;;;11.80;;
64854;SDS011;51321;50.428;8.378;2022-12-18T04:04:25;22.52;;;11.25;;
64854;SDS011;51321;50.428;8.378;2022-12-18T04:06:50;20.73;;;10.52;;
64854;SDS011;51321;50.428;8.378;2022-12-18T04:09:15;24.02;;;10.80;;
64854;SDS011;51321;50.428;8.378;2022-12-18T04:11:40;25.30;;;11.52;;
64854;SDS011;51321;50.428;8.378;2022-12-18T04:14:06;22.50;;;11.95;;
64854;SDS011;51321;50.428;8.378;2022-12-18T04:16:28;31.45;;;13.43;;
64854;SDS011;51321;50.428;8.378;2022-12-18T04:18:55;27.75;;;12.57;;
64854;SDS011;51321;50.428;8.378;2022-12-18T04:21:20;26.25;;;13.15;;
64854;SDS011;51321;50.428;8.378;2022-12-18T04:23:44;20.67;;;11.15;;
64854;SDS011;51321;50.428;8.378;2022-12-18T04:26:08;24.05;;;9.27;;
64854;SDS011;51321;50.428;8.378;2022-12-18T04:28:52;24.25;;;11.07;;
64854;SDS011;51321;50.428;8.378;2022-12-18T04:31:16;26.25;;;10.23;;
64854;SDS011;51321;50.428;8.378;2022-12-18T04:33:41;21.85;;;11.07;;
64854;SDS011;51321;50.428;8.378;2022-12-18T04:36:06;24.58;;;11.68;;
64854;SDS011;51321;50.428;8.378;2022-12-18T04:38:29;25.10;;;12.70;;
64854;SDS011;51321;50.428;8.378;2022-12-18T04:40:59;22.60;;;11.27;;
64854;SDS011;51321;50.428;8.378;2022-12-18T04:43:33;24.93;;;10.37;;
64854;SDS011;51321;50.428;8.378;2022-12-18T04:46:01;25.90;;;11.98;;
64854;SDS011;51321;50.428;8.378;2022-12-18T04:48:25;24.85;;;12.13;;
64854;SDS011;51321;50.428;8.378;2022-12-18T04:50:50;23.65;;;10.93;;
64854;SDS011;51321;50.428;8.378;2022-12-18T04:53:13;26.75;;;10.93;;
64854;SDS011;51321;50.428;8.378;2022-12-18T04:55:36;27.38;;;11.60;;
64854;SDS011;51321;50.428;8.378;2022-12-18T04:57:58;20.33;;;11.55;;
64854;SDS011;51321;50.428;8.378;2022-12-18T05:00:26;21.02;;;10.80;;
64854;SDS011;51321;50.428;8.378;2022-12-18T05:02:49;26.95;;;11.68;;
64854;SDS011;51321;50.428;8.378;2022-12-18T05:09:56;26.88;;;10.38;;
64854;SDS011;51321;50.428;8.378;2022-12-18T05:12:23;19.13;;;9.60;;
64854;SDS011;51321;50.428;8.378;2022-12-18T05:14:46;24.15;;;10.70;;
64854;SDS011;51321;50.428;8.378;2022-12-18T05:17:10;23.13;;;11.02;;
64854;SDS011;51321;50.428;8.378;2022-12-18T05:19:33;21.77;;;11.50;;
64854;SDS011;51321;50.428;8.378;2022-12-18T05:24:19;25.55;;;12.15;;
64854;SDS011;51321;50.428;8.378;2022-12-18T05:26:41;27.45;;;14.25;;
64854;SDS011;51321;50.428;8.378;2022-12-18T05:31:26;17.60;;;8.90;;
64854;SDS011;51321;50.428;8.378;2022-12-18T05:36:12;19.02;;;8.98;;
64854;SDS011;51321;50.428;8.378;2022-12-18T05:38:35;24.60;;;11.73;;
64854;SDS011;51321;50.428;8.378;2022-12-18T05:40:58;26.92;;;10.70;;
64854;SDS011;51321;50.428;8.378;2022-12-18T05:43:21;24.85;;;10.77;;
64854;SDS011;51321;50.428;8.378;2022-12-18T05:45:45;25.52;;;12.15;;
64854;SDS011;51321;50.428;8.378;2022-12-18T05:48:09;21.05;;;10.23;;
64854;SDS011;51321;50.428;8.378;2022-12-18T05:50:37;24.55;;;11.02;;
64854;SDS011;51321;50.428;8.378;2022-12-18T05:53:02;25.75;;;11.07;;
64854;SDS011;51321;50.428;8.378;2022-12-18T05:55:27;20.63;;;9.90;;
64854;SDS011;51321;50.428;8.378;2022-12-18T05:57:52;23.92;;;11.82;;
64854;SDS011;51321;50.428;8.378;2022-12-18T06:00:16;27.17;;;11.07;;
64854;SDS011;51321;50.428;8.378;2022-12-18T06:02:46;20.90;;;10.00;;
64854;SDS011;51321;50.428;8.378;2022-12-18T06:05:10;22.17;;;11.25;;
64854;SDS011;51321;50.428;8.378;2022-12-18T06:07:35;24.55;;;10.23;;
64854;SDS011;51321;50.428;8.378;2022-12-18T06:10:06;17.95;;;9.57;;
64854;SDS011;51321;50.428;8.378;2022-12-18T06:12:31;17.98;;;9.23;;
64854;SDS011;51321;50.428;8.378;2022-12-18T06:14:54;22.50;;;11.15;;
64854;SDS011;51321;50.428;8.378;2022-12-18T06:17:17;20.40;;;10.30;;
64854;SDS011;51321;50.428;8.378;2022-12-18T06:19:42;22.25;;;10.95;;
64854;SDS011;51321;50.428;8.378;2022-12-18T06:22:05;20.08;;;9.85;;
64854;SDS011;51321;50.428;8.378;2022-12-18T06:24:29;17.80;;;9.57;;
64854;SDS011;51321;50.428;8.378;2022-12-18T06:26:52;22.77;;;11.52;;
64854;SDS011;51321;50.428;8.378;2022-12-18T06:29:15;22.77;;;10.52;;
64854;SDS011;51321;50.428;8.378;2022-12-18T06:31:39;23.15;;;10.20;;
64854;SDS011;51321;50.428;8.378;2022-12-18T06:36:23;23.00;;;9.93;;
64854;SDS011;51321;50.428;8.378;2022-12-18T06:41:11;21.65;;;8.68;;
64854;SDS011;51321;50.428;8.378;2022-12-18T06:43:37;20.88;;;9.35;;
64854;SDS011;51321;50.428;8.378;2022-12-18T06:46:00;21.55;;;9.88;;
64854;SDS011;51321;50.428;8.378;2022-12-18T06:48:23;18.55;;;9.27;;
64854;SDS011;51321;50.428;8.378;2022-12-18T06:50:49;19.25;;;9.85;;
64854;SDS011;51321;50.428;8.378;2022-12-18T06:53:11;21.50;;;10.43;;
64854;SDS011;51321;50.428;8.378;2022-12-18T06:57:59;23.48;;;9.13;;
64854;SDS011;51321;50.428;8.378;2022-12-18T07:00:22;24.50;;;11.43;;
64854;SDS011;51321;50.428;8.378;2022-12-18T07:02:45;34.38;;;14.52;;
64854;SDS011;51321;50.428;8.378;2022-12-18T07:05:11;33.00;;;14.40;;
64854;SDS011;51321;50.428;8.378;2022-12-18T07:07:35;35.63;;;13.93;;
64854;SDS011;51321;50.428;8.378;2022-12-18T07:09:59;27.85;;;12.95;;
64854;SDS011;51321;50.428;8.378;2022-12-18T07:12:21;28.40;;;13.07;;
64854;SDS011;51321;50.428;8.378;2022-12-18T07:14:47;27.95;;;12.93;;
64854;SDS011;51321;50.428;8.378;2022-12-18T07:17:10;33.85;;;14.18;;
64854;SDS011;51321;50.428;8.378;2022-12-18T07:19:34;32.25;;;13.18;;
64854;SDS011;51321;50.428;8.378;2022-12-18T07:21:58;26.17;;;12.70;;
64854;SDS011;51321;50.428;8.378;2022-12-18T07:24:21;28.27;;;13.80;;
64854;SDS011;51321;50.428;8.378;2022-12-18T07:26:45;25.45;;;12.48;;
64854;SDS011;51321;50.428;8.378;2022-12-18T07:29:08;27.98;;;12.93;;
64854;SDS011;51321;50.428;8.378;2022-12-18T07:31:33;24.95;;;12.60;;
64854;SDS011;51321;50.428;8.378;2022-12-18T07:33:56;25.45;;;12.93;;
64854;SDS011;51321;50.428;8.378;2022-12-18T07:36:20;27.08;;;12.35;;
64854;SDS011;51321;50.428;8.378;2022-12-18T07:38:46;24.50;;;12.32;;
64854;SDS011;51321;50.428;8.378;2022-12-18T07:41:10;30.95;;;12.75;;
64854;SDS011;51321;50.428;8.378;2022-12-18T07:43:40;26.08;;;13.00;;
64854;SDS011;51321;50.428;8.378;2022-12-18T07:46:04;25.55;;;12.18;;
64854;SDS011;51321;50.428;8.378;2022-12-18T07:48:29;25.25;;;12.20;;
64854;SDS011;51321;50.428;8.378;2022-12-18T07:50:51;23.08;;;12.73;;
64854;SDS011;51321;50.428;8.378;2022-12-18T07:53:14;27.20;;;11.80;;
64854;SDS011;51321;50.428;8.378;2022-12-18T07:55:36;30.25;;;15.27;;
64854;SDS011;51321;50.428;8.378;2022-12-18T07:58:01;27.98;;;13.48;;
64854;SDS011;51321;50.428;8.378;2022-12-18T08:00:28;33.03;;;16.92;;
64854;SDS011;51321;50.428;8.378;2022-12-18T08:02:51;48.40;;;23.38;;
64854;SDS011;51321;50.428;8.378;2022-12-18T08:05:17;45.40;;;20.58;;
64854;SDS011;51321;50.428;8.378;2022-12-18T08:07:40;39.03;;;19.17;;
64854;SDS011;51321;50.428;8.378;2022-12-18T08:10:03;28.50;;;14.13;;
64854;SDS011;51321;50.428;8.378;2022-12-18T08:12:26;27.80;;;14.02;;
64854;SDS011;51321;50.428;8.378;2022-12-18T08:14:48;27.02;;;15.70;;
64854;SDS011;51321;50.428;8.378;2022-12-18T08:19:33;29.15;;;13.40;;
64854;SDS011;51321;50.428;8.378;2022-12-18T08:21:56;27.90;;;13.68;;
64854;SDS011;51321;50.428;8.378;2022-12-18T08:24:18;27.10;;;14.32;;
64854;SDS011;51321;50.428;8.378;2022-12-18T08:26:44;26.13;;;13.25;;
64854;SDS011;51321;50.428;8.378;2022-12-18T08:29:08;28.15;;;13.90;;
64854;SDS011;51321;50.428;8.378;2022-12-18T08:31:31;28.17;;;15.15;;
64854;SDS011;51321;50.428;8.378;2022-12-18T08:33:54;37.08;;;16.05;;
64854;SDS011;51321;50.428;8.378;2022-12-18T08:36:18;31.63;;;16.02;;
64854;SDS011;51321;50.428;8.378;2022-12-18T08:38:44;31.92;;;17.25;;
64854;SDS011;51321;50.428;8.378;2022-12-18T08:41:09;34.25;;;17.33;;
64854;SDS011;51321;50.428;8.378;2022-12-18T08:43:33;30.27;;;16.60;;
64854;SDS011;51321;50.428;8.378;2022-12-18T08:46:13;31.35;;;16.35;;
64854;SDS011;51321;50.428;8.378;2022-12-18T08:48:36;32.72;;;16.35;;
64854;SDS011;51321;50.428;8.378;2022-12-18T08:50:58;32.05;;;17.23;;
64854;SDS011;51321;50.428;8.378;2022-12-18T08:53:21;32.97;;;17.15;;
64854;SDS011;51321;50.428;8.378;2022-12-18T08:55:46;41.53;;;17.80;;
64854;SDS011;51321;50.428;8.378;2022-12-18T08:58:10;35.83;;;19.52;;
64854;SDS011;51321;50.428;8.378;2022-12-18T09:00:33;30.88;;;15.90;;
64854;SDS011;51321;50.428;8.378;2022-12-18T09:02:55;29.98;;;18.02;;
64854;SDS011;51321;50.428;8.378;2022-12-18T09:05:17;33.85;;;17.02;;
64854;SDS011;51321;50.428;8.378;2022-12-18T09:07:41;29.77;;;17.13;;
64854;SDS011;51321;50.428;8.378;2022-12-18T09:12:27;26.65;;;13.73;;
64854;SDS011;51321;50.428;8.378;2022-12-18T09:14:55;28.08;;;14.77;;
64854;SDS011;51321;50.428;8.378;2022-12-18T09:17:18;25.88;;;13.52;;
64854;SDS011;51321;50.428;8.378;2022-12-18T09:19:40;27.92;;;14.75;;
64854;SDS011;51321;50.428;8.378;2022-12-18T09:22:03;28.83;;;13.35;;
64854;SDS011;51321;50.428;8.378;2022-12-18T09:24:26;27.00;;;15.52;;
64854;SDS011;51321;50.428;8.378;2022-12-18T09:26:52;28.15;;;15.32;;
64854;SDS011;51321;50.428;8.378;2022-12-18T09:29:16;29.20;;;15.30;;
64854;SDS011;51321;50.428;8.378;2022-12-18T09:31:39;27.63;;;13.52;;
64854;SDS011;51321;50.428;8.378;2022-12-18T09:34:01;27.40;;;14.88;;
64854;SDS011;51321;50.428;8.378;2022-12-18T09:38:46;22.75;;;12.35;;
64854;SDS011;51321;50.428;8.378;2022-12-18T09:43:40;27.30;;;13.60;;
64854;SDS011;51321;50.428;8.378;2022-12-18T09:46:11;26.15;;;13.18;;
64854;SDS011;51321;50.428;8.378;2022-12-18T09:48:40;25.88;;;15.15;;
64854;SDS011;51321;50.428;8.378;2022-12-18T09:51:09;22.45;;;13.02;;
64854;SDS011;51321;50.428;8.378;2022-12-18T09:53:37;27.83;;;14.73;;
64854;SDS011;51321;50.428;8.378;2022-12-18T09:56:04;25.00;;;14.52;;
64854;SDS011;51321;50.428;8.378;2022-12-18T09:58:31;28.00;;;15.80;;
64854;SDS011;51321;50.428;8.378;2022-12-18T10:00:59;28.45;;;14.80;;
64854;SDS011;51321;50.428;8.378;2022-12-18T10:03:23;26.92;;;15.88;;
64854;SDS011;51321;50.428;8.378;2022-12-18T10:05:48;34.67;;;18.58;;
64854;SDS011;51321;50.428;8.378;2022-12-18T10:08:22;30.90;;;16.52;;
64854;SDS011;51321;50.428;8.378;2022-12-18T10:10:52;28.45;;;15.13;;
64854;SDS011;51321;50.428;8.378;2022-12-18T10:13:23;24.80;;;15.25;;
64854;SDS011;51321;50.428;8.378;2022-12-18T10:16:01;25.67;;;14.77;;
64854;SDS011;51321;50.428;8.378;2022-12-18T10:18:36;24.73;;;14.55;;
64854;SDS011;51321;50.428;8.378;2022-12-18T10:21:17;25.25;;;15.02;;
64854;SDS011;51321;50.428;8.378;2022-12-18T10:23:45;22.60;;;13.50;;
64854;SDS011;51321;50.428;8.378;2022-12-18T10:26:17;29.60;;;16.55;;
64854;SDS011;51321;50.428;8.378;2022-12-18T10:28:40;27.42;;;15.07;;
64854;SDS011;51321;50.428;8.378;2022-12-18T10:31:04;26.65;;;16.02;;
64854;SDS011;51321;50.428;8.378;2022-12-18T10:33:32;24.25;;;14.00;;
64854;SDS011;51321;50.428;8.378;2022-12-18T10:35:57;23.60;;;14.30;;
64854;SDS011;51321;50.428;8.378;2022-12-18T10:38:21;28.20;;;17.88;;
64854;SDS011;51321;50.428;8.378;2022-12-18T10:40:50;25.00;;;15.77;;
64854;SDS011;51321;50.428;8.378;2022-12-18T10:43:15;23.88;;;13.45;;
64854;SDS011;51321;50.428;8.378;2022-12-18T10:45:41;23.45;;;12.85;;
64854;SDS011;51321;50.428;8.378;2022-12-18T10:48:21;21.48;;;12.88;;
64854;SDS011;51321;50.428;8.378;2022-12-18T10:50:45;24.98;;;14.85;;
64854;SDS011;51321;50.428;8.378;2022-12-18T10:53:13;39.60;;;22.10;;
64854;SDS011;51321;50.428;8.378;2022-12-18T10:55:40;24.95;;;13.65;;
64854;SDS011;51321;50.428;8.378;2022-12-18T10:58:20;23.27;;;14.43;;
64854;SDS011;51321;50.428;8.378;2022-12-18T11:00:45;24.20;;;14.93;;
64854;SDS011;51321;50.428;8.378;2022-12-18T11:03:29;23.45;;;13.82;;
64854;SDS011;51321;50.428;8.378;2022-12-18T11:06:02;28.08;;;15.18;;
64854;SDS011;51321;50.428;8.378;2022-12-18T11:08:30;25.85;;;14.23;;
64854;SDS011;51321;50.428;8.378;2022-12-18T11:10:52;28.67;;;14.82;;
64854;SDS011;51321;50.428;8.378;2022-12-18T11:13:17;27.90;;;15.50;;
64854;SDS011;51321;50.428;8.378;2022-12-18T11:15:42;26.65;;;13.88;;
64854;SDS011;51321;50.428;8.378;2022-12-18T11:18:14;25.95;;;15.45;;
64854;SDS011;51321;50.428;8.378;2022-12-18T11:20:39;26.90;;;15.73;;
64854;SDS011;51321;50.428;8.378;2022-12-18T11:25:32;27.65;;;15.98;;
64854;SDS011;51321;50.428;8.378;2022-12-18T11:27:56;26.52;;;16.52;;
64854;SDS011;51321;50.428;8.378;2022-12-18T11:30:22;31.33;;;16.75;;
64854;SDS011;51321;50.428;8.378;2022-12-18T11:32:46;31.17;;;17.42;;
64854;SDS011;51321;50.428;8.378;2022-12-18T11:35:12;31.20;;;16.77;;
64854;SDS011;51321;50.428;8.378;2022-12-18T11:37:40;32.47;;;17.65;;
64854;SDS011;51321;50.428;8.378;2022-12-18T11:40:11;28.73;;;16.02;;
64854;SDS011;51321;50.428;8.378;2022-12-18T11:42:38;32.50;;;19.30;;
64854;SDS011;51321;50.428;8.378;2022-12-18T11:45:14;31.10;;;17.00;;
64854;SDS011;51321;50.428;8.378;2022-12-18T11:47:48;31.00;;;16.77;;
64854;SDS011;51321;50.428;8.378;2022-12-18T11:50:14;30.10;;;17.20;;
64854;SDS011;51321;50.428;8.378;2022-12-18T11:52:40;31.80;;;18.50;;
64854;SDS011;51321;50.428;8.378;2022-12-18T11:55:05;31.45;;;16.77;;
64854;SDS011;51321;50.428;8.378;2022-12-18T11:57:36;33.03;;;17.63;;
64854;SDS011;51321;50.428;8.378;2022-12-18T12:00:11;32.28;;;17.98;;
64854;SDS011;51321;50.428;8.378;2022-12-18T12:02:46;33.13;;;18.17;;
64854;SDS011;51321;50.428;8.378;2022-12-18T12:05:31;39.65;;;18.77;;
64854;SDS011;51321;50.428;8.378;2022-12-18T12:08:06;36.05;;;18.73;;
64854;SDS011;51321;50.428;8.378;2022-12-18T12:10:42;33.63;;;17.70;;
64854;SDS011;51321;50.428;8.378;2022-12-18T12:13:18;32.50;;;18.85;;
64854;SDS011;51321;50.428;8.378;2022-12-18T12:15:54;36.05;;;19.27;;
64854;SDS011;51321;50.428;8.378;2022-12-18T12:18:29;34.85;;;19.20;;
64854;SDS011;51321;50.428;8.378;2022-12-18T12:21:03;33.35;;;18.52;;
64854;SDS011;51321;50.428;8.378;2022-12-18T12:26:03;37.47;;;19.10;;
64854;SDS011;51321;50.428;8.378;2022-12-18T12:31:21;39.97;;;20.10;;
64854;SDS011;51321;50.428;8.378;2022-12-18T12:33:53;34.40;;;19.52;;
64854;SDS011;51321;50.428;8.378;2022-12-18T12:36:24;40.90;;;22.05;;
64854;SDS011;51321;50.428;8.378;2022-12-18T12:38:55;38.55;;;20.40;;
64854;SDS011;51321;50.428;8.378;2022-12-18T12:41:23;42.47;;;22.60;;
64854;SDS011;51321;50.428;8.378;2022-12-18T12:44:06;38.95;;;20.17;;
64854;SDS011;51321;50.428;8.378;2022-12-18T12:46:35;42.65;;;21.60;;
64854;SDS011;51321;50.428;8.378;2022-12-18T12:49:02;43.78;;;23.70;;
64854;SDS011;51321;50.428;8.378;2022-12-18T12:51:27;39.03;;;20.67;;
64854;SDS011;51321;50.428;8.378;2022-12-18T12:53:51;35.95;;;19.58;;
64854;SDS011;51321;50.428;8.378;2022-12-18T12:56:17;40.03;;;22.50;;
64854;SDS011;51321;50.428;8.378;2022-12-18T12:58:45;40.25;;;21.55;;
64854;SDS011;51321;50.428;8.378;2022-12-18T13:01:17;39.67;;;20.55;;
64854;SDS011;51321;50.428;8.378;2022-12-18T13:03:48;38.65;;;20.77;;
64854;SDS011;51321;50.428;8.378;2022-12-18T13:08:54;36.72;;;19.60;;
64854;SDS011;51321;50.428;8.378;2022-12-18T13:11:28;41.22;;;21.70;;
64854;SDS011;51321;50.428;8.378;2022-12-18T13:14:19;38.20;;;19.77;;
64854;SDS011;51321;50.428;8.378;2022-12-18T13:16:47;38.65;;;19.95;;
64854;SDS011;51321;50.428;8.378;2022-12-18T13:19:18;43.30;;;22.80;;
64854;SDS011;51321;50.428;8.378;2022-12-18T13:21:45;33.88;;;19.98;;
64854;SDS011;51321;50.428;8.378;2022-12-18T13:24:23;48.77;;;22.93;;
64854;SDS011;51321;50.428;8.378;2022-12-18T13:26:57;41.67;;;21.67;;
64854;SDS011;51321;50.428;8.378;2022-12-18T13:32:19;46.63;;;22.58;;
64854;SDS011;51321;50.428;8.378;2022-12-18T13:34:45;43.70;;;23.17;;
64854;SDS011;51321;50.428;8.378;2022-12-18T13:40:00;46.78;;;22.52;;
64854;SDS011;51321;50.428;8.378;2022-12-18T13:42:37;44.30;;;23.00;;
64854;SDS011;51321;50.428;8.378;2022-12-18T13:45:37;45.17;;;21.85;;
64854;SDS011;51321;50.428;8.378;2022-12-18T13:48:10;42.83;;;21.95;;
64854;SDS011;51321;50.428;8.378;2022-12-18T13:50:40;45.95;;;22.75;;
64854;SDS011;51321;50.428;8.378;2022-12-18T13:53:11;41.28;;;21.63;;
64854;SDS011;51321;50.428;8.378;2022-12-18T13:55:44;46.42;;;22.45;;
64854;SDS011;51321;50.428;8.378;2022-12-18T13:58:11;42.53;;;22.80;;
64854;SDS011;51321;50.428;8.378;2022-12-18T14:00:34;43.17;;;22.33;;
64854;SDS011;51321;50.428;8.378;2022-12-18T14:02:58;46.30;;;22.63;;
64854;SDS011;51321;50.428;8.378;2022-12-18T14:05:21;40.58;;;21.23;;
64854;SDS011;51321;50.428;8.378;2022-12-18T14:07:44;39.60;;;21.65;;
64854;SDS011;51321;50.428;8.378;2022-12-18T14:12:34;43.38;;;22.30;;
64854;SDS011;51321;50.428;8.378;2022-12-18T14:15:20;40.63;;;21.70;;
64854;SDS011;51321;50.428;8.378;2022-12-18T14:17:49;48.67;;;22.98;;
64854;SDS011;51321;50.428;8.378;2022-12-18T14:20:14;50.30;;;23.40;;
64854;SDS011;51321;50.428;8.378;2022-12-18T14:22:39;45.72;;;24.00;;
64854;SDS011;51321;50.428;8.378;2022-12-18T14:25:16;47.90;;;22.80;;
64854;SDS011;51321;50.428;8.378;2022-12-18T14:27:41;44.60;;;21.70;;
64854;SDS011;51321;50.428;8.378;2022-12-18T14:30:16;46.85;;;22.88;;
64854;SDS011;51321;50.428;8.378;2022-12-18T14:32:58;47.35;;;22.65;;
64854;SDS011;51321;50.428;8.378;2022-12-18T14:35:24;41.78;;;22.65;;
64854;SDS011;51321;50.428;8.378;2022-12-18T14:37:47;43.42;;;23.65;;
64854;SDS011;51321;50.428;8.378;2022-12-18T14:40:11;52.05;;;24.00;;
64854;SDS011;51321;50.428;8.378;2022-12-18T14:42:35;46.03;;;23.42;;
64854;SDS011;51321;50.428;8.378;2022-12-18T14:47:55;45.83;;;22.17;;
64854;SDS011;51321;50.428;8.378;2022-12-18T14:50:19;44.72;;;24.20;;
64854;SDS011;51321;50.428;8.378;2022-12-18T14:52:44;46.17;;;22.23;;
64854;SDS011;51321;50.428;8.378;2022-12-18T14:55:13;49.47;;;23.20;;
64854;SDS011;51321;50.428;8.378;2022-12-18T14:57:37;43.25;;;21.63;;
64854;SDS011;51321;50.428;8.378;2022-12-18T15:00:04;46.28;;;22.92;;
64854;SDS011;51321;50.428;8.378;2022-12-18T15:02:27;44.58;;;22.15;;
64854;SDS011;51321;50.428;8.378;2022-12-18T15:04:59;44.03;;;22.25;;
64854;SDS011;51321;50.428;8.378;2022-12-18T15:07:23;50.58;;;23.40;;
64854;SDS011;51321;50.428;8.378;2022-12-18T15:12:33;48.40;;;23.08;;
64854;SDS011;51321;50.428;8.378;2022-12-18T15:14:58;42.40;;;21.92;;
64854;SDS011;51321;50.428;8.378;2022-12-18T15:17:21;48.22;;;23.20;;
64854;SDS011;51321;50.428;8.378;2022-12-18T15:19:44;41.17;;;21.83;;
64854;SDS011;51321;50.428;8.378;2022-12-18T15:22:16;45.05;;;22.00;;
64854;SDS011;51321;50.428;8.378;2022-12-18T15:24:46;39.45;;;20.30;;
64854;SDS011;51321;50.428;8.378;2022-12-18T15:27:23;42.13;;;21.60;;
64854;SDS011;51321;50.428;8.378;2022-12-18T15:30:02;47.08;;;22.52;;
64854;SDS011;51321;50.428;8.378;2022-12-18T15:32:41;46.40;;;23.83;;
64854;SDS011;51321;50.428;8.378;2022-12-18T15:35:08;51.17;;;22.92;;
64854;SDS011;51321;50.428;8.378;2022-12-18T15:40:00;42.55;;;19.70;;